sensor_id;sensor_type;location;lat;lon;timestamp;temperature;humidity
921;DHT22;447;51.332;6.778;2022-10-16T00:01:22;16.00;99.90
921;DHT22;447;51.332;6.778;2022-10-16T00:03:49;15.90;99.90
921;DHT22;447;51.332;6.778;2022-10-16T00:06:20;15.90;99.90
921;DHT22;447;51.332;6.778;2022-10-16T00:09:09;15.90;99.90
921;DHT22;447;51.332;6.778;2022-10-16T00:11:37;15.90;99.90
921;DHT22;447;51.332;6.778;2022-10-16T00:14:07;15.90;99.90
921;DHT22;447;51.332;6.778;2022-10-16T00:16:40;15.90;99.90
921;DHT22;447;51.332;6.778;2022-10-16T00:19:07;15.90;99.90
921;DHT22;447;51.332;6.778;2022-10-16T00:21:34;15.90;99.90
921;DHT22;447;51.332;6.778;2022-10-16T00:24:21;15.90;99.90
921;DHT22;447;51.332;6.778;2022-10-16T00:26:50;15.90;99.90
921;DHT22;447;51.332;6.778;2022-10-16T00:29:18;15.90;99.90
921;DHT22;447;51.332;6.778;2022-10-16T00:31:47;15.90;99.90
921;DHT22;447;51.332;6.778;2022-10-16T00:34:13;15.90;99.90
921;DHT22;447;51.332;6.778;2022-10-16T00:36:39;15.90;99.90
921;DHT22;447;51.332;6.778;2022-10-16T00:39:05;15.90;99.90
921;DHT22;447;51.332;6.778;2022-10-16T00:41:35;15.80;99.90
921;DHT22;447;51.332;6.778;2022-10-16T00:44:40;15.90;99.90
921;DHT22;447;51.332;6.778;2022-10-16T00:46:56;15.80;99.90
921;DHT22;447;51.332;6.778;2022-10-16T00:49:24;15.80;99.90
921;DHT22;447;51.332;6.778;2022-10-16T00:51:54;15.80;99.90
921;DHT22;447;51.332;6.778;2022-10-16T00:54:28;15.80;99.90
921;DHT22;447;51.332;6.778;2022-10-16T00:56:55;15.80;99.90
921;DHT22;447;51.332;6.778;2022-10-16T00:59:30;15.80;99.90
921;DHT22;447;51.332;6.778;2022-10-16T01:01:57;15.80;99.90
921;DHT22;447;51.332;6.778;2022-10-16T01:04:26;15.80;99.90
921;DHT22;447;51.332;6.778;2022-10-16T01:07:41;15.80;99.90
921;DHT22;447;51.332;6.778;2022-10-16T01:12:24;15.80;99.90
921;DHT22;447;51.332;6.778;2022-10-16T01:15:26;15.80;99.90
921;DHT22;447;51.332;6.778;2022-10-16T01:20:33;15.80;99.90
921;DHT22;447;51.332;6.778;2022-10-16T01:28:17;15.70;99.90
921;DHT22;447;51.332;6.778;2022-10-16T01:30:45;15.70;99.90
921;DHT22;447;51.332;6.778;2022-10-16T01:33:23;15.70;99.90
921;DHT22;447;51.332;6.778;2022-10-16T01:35:56;15.70;99.90
921;DHT22;447;51.332;6.778;2022-10-16T01:38:40;15.70;99.90
921;DHT22;447;51.332;6.778;2022-10-16T01:41:18;15.70;99.90
921;DHT22;447;51.332;6.778;2022-10-16T01:43:50;15.70;99.90
921;DHT22;447;51.332;6.778;2022-10-16T01:46:20;15.70;99.90
921;DHT22;447;51.332;6.778;2022-10-16T01:48:50;15.70;99.90
921;DHT22;447;51.332;6.778;2022-10-16T01:51:20;15.70;99.90
921;DHT22;447;51.332;6.778;2022-10-16T01:53:50;15.70;99.90
921;DHT22;447;51.332;6.778;2022-10-16T01:56:20;15.70;99.90
921;DHT22;447;51.332;6.778;2022-10-16T01:58:54;15.70;99.90
921;DHT22;447;51.332;6.778;2022-10-16T02:01:26;15.70;99.90
921;DHT22;447;51.332;6.778;2022-10-16T02:03:57;15.70;99.90
921;DHT22;447;51.332;6.778;2022-10-16T02:06:24;15.70;99.90
921;DHT22;447;51.332;6.778;2022-10-16T02:08:56;15.60;99.90
921;DHT22;447;51.332;6.778;2022-10-16T02:11:24;15.70;99.90
921;DHT22;447;51.332;6.778;2022-10-16T02:13:58;15.60;99.90
921;DHT22;447;51.332;6.778;2022-10-16T02:16:37;15.60;99.90
921;DHT22;447;51.332;6.778;2022-10-16T02:19:07;15.60;99.90
921;DHT22;447;51.332;6.778;2022-10-16T02:22:05;15.60;99.90
921;DHT22;447;51.332;6.778;2022-10-16T02:30:45;15.60;99.90
921;DHT22;447;51.332;6.778;2022-10-16T02:33:14;15.60;99.90
921;DHT22;447;51.332;6.778;2022-10-16T02:35:45;15.60;99.90
921;DHT22;447;51.332;6.778;2022-10-16T02:38:12;15.60;99.90
921;DHT22;447;51.332;6.778;2022-10-16T02:40:42;15.60;99.90
921;DHT22;447;51.332;6.778;2022-10-16T02:43:11;15.60;99.90
921;DHT22;447;51.332;6.778;2022-10-16T02:45:37;15.60;99.90
921;DHT22;447;51.332;6.778;2022-10-16T02:48:04;15.60;99.90
921;DHT22;447;51.332;6.778;2022-10-16T02:50:30;15.60;99.90
921;DHT22;447;51.332;6.778;2022-10-16T02:52:56;15.60;99.90
921;DHT22;447;51.332;6.778;2022-10-16T02:55:25;15.60;99.90
921;DHT22;447;51.332;6.778;2022-10-16T02:57:51;15.60;99.90
921;DHT22;447;51.332;6.778;2022-10-16T03:00:18;15.60;99.90
921;DHT22;447;51.332;6.778;2022-10-16T03:02:44;15.60;99.90
921;DHT22;447;51.332;6.778;2022-10-16T03:05:12;15.50;99.90
921;DHT22;447;51.332;6.778;2022-10-16T03:07:39;15.50;99.90
921;DHT22;447;51.332;6.778;2022-10-16T03:10:05;15.50;99.90
921;DHT22;447;51.332;6.778;2022-10-16T03:12:32;15.50;99.90
921;DHT22;447;51.332;6.778;2022-10-16T03:14:59;15.50;99.90
921;DHT22;447;51.332;6.778;2022-10-16T03:17:25;15.50;99.90
921;DHT22;447;51.332;6.778;2022-10-16T03:19:53;15.50;99.90
921;DHT22;447;51.332;6.778;2022-10-16T03:22:19;15.50;99.90
921;DHT22;447;51.332;6.778;2022-10-16T03:24:45;15.50;99.90
921;DHT22;447;51.332;6.778;2022-10-16T03:27:11;15.50;99.90
921;DHT22;447;51.332;6.778;2022-10-16T03:29:37;15.50;99.90
921;DHT22;447;51.332;6.778;2022-10-16T03:32:03;15.50;99.90
921;DHT22;447;51.332;6.778;2022-10-16T03:34:29;15.50;99.90
921;DHT22;447;51.332;6.778;2022-10-16T03:37:02;15.50;99.90
921;DHT22;447;51.332;6.778;2022-10-16T03:39:30;15.50;99.90
921;DHT22;447;51.332;6.778;2022-10-16T03:41:59;15.50;99.90
921;DHT22;447;51.332;6.778;2022-10-16T03:44:28;15.50;99.90
921;DHT22;447;51.332;6.778;2022-10-16T03:46:54;15.50;99.90
921;DHT22;447;51.332;6.778;2022-10-16T03:49:29;15.50;99.90
921;DHT22;447;51.332;6.778;2022-10-16T03:51:57;15.50;99.90
921;DHT22;447;51.332;6.778;2022-10-16T03:54:23;15.50;99.90
921;DHT22;447;51.332;6.778;2022-10-16T03:56:49;15.50;99.90
921;DHT22;447;51.332;6.778;2022-10-16T03:59:17;15.50;99.90
921;DHT22;447;51.332;6.778;2022-10-16T04:01:43;15.40;99.90
921;DHT22;447;51.332;6.778;2022-10-16T04:04:09;15.50;99.90
921;DHT22;447;51.332;6.778;2022-10-16T04:06:38;15.50;99.90
921;DHT22;447;51.332;6.778;2022-10-16T04:09:04;15.50;99.90
921;DHT22;447;51.332;6.778;2022-10-16T04:11:30;15.40;99.90
921;DHT22;447;51.332;6.778;2022-10-16T04:13:58;15.50;99.90
921;DHT22;447;51.332;6.778;2022-10-16T04:16:26;15.40;99.90
921;DHT22;447;51.332;6.778;2022-10-16T04:18:55;15.40;99.90
921;DHT22;447;51.332;6.778;2022-10-16T04:21:21;15.40;99.90
921;DHT22;447;51.332;6.778;2022-10-16T04:23:48;15.40;99.90
921;DHT22;447;51.332;6.778;2022-10-16T04:26:15;15.40;99.90
921;DHT22;447;51.332;6.778;2022-10-16T04:28:44;15.40;99.90
921;DHT22;447;51.332;6.778;2022-10-16T04:31:12;15.40;99.90
921;DHT22;447;51.332;6.778;2022-10-16T04:33:38;15.40;99.90
921;DHT22;447;51.332;6.778;2022-10-16T04:36:06;15.40;99.90
921;DHT22;447;51.332;6.778;2022-10-16T04:38:32;15.40;99.90
921;DHT22;447;51.332;6.778;2022-10-16T04:41:06;15.40;99.90
921;DHT22;447;51.332;6.778;2022-10-16T04:43:33;15.40;99.90
921;DHT22;447;51.332;6.778;2022-10-16T04:46:15;15.40;99.90
921;DHT22;447;51.332;6.778;2022-10-16T04:48:46;15.30;99.90
921;DHT22;447;51.332;6.778;2022-10-16T04:51:15;15.40;99.90
921;DHT22;447;51.332;6.778;2022-10-16T04:53:46;15.40;99.90
921;DHT22;447;51.332;6.778;2022-10-16T04:56:12;15.40;99.90
921;DHT22;447;51.332;6.778;2022-10-16T04:58:43;15.40;99.90
921;DHT22;447;51.332;6.778;2022-10-16T05:01:09;15.30;99.90
921;DHT22;447;51.332;6.778;2022-10-16T05:03:39;15.30;99.90
921;DHT22;447;51.332;6.778;2022-10-16T05:06:08;15.30;99.90
921;DHT22;447;51.332;6.778;2022-10-16T05:08:37;15.30;99.90
921;DHT22;447;51.332;6.778;2022-10-16T05:11:05;15.30;99.90
921;DHT22;447;51.332;6.778;2022-10-16T05:13:31;15.30;99.90
921;DHT22;447;51.332;6.778;2022-10-16T05:16:01;15.30;99.90
921;DHT22;447;51.332;6.778;2022-10-16T05:18:27;15.30;99.90
921;DHT22;447;51.332;6.778;2022-10-16T05:20:53;15.30;99.90
921;DHT22;447;51.332;6.778;2022-10-16T05:23:19;15.30;99.90
921;DHT22;447;51.332;6.778;2022-10-16T05:25:52;15.30;99.90
921;DHT22;447;51.332;6.778;2022-10-16T05:28:30;15.20;99.90
921;DHT22;447;51.332;6.778;2022-10-16T05:31:07;15.30;99.90
921;DHT22;447;51.332;6.778;2022-10-16T05:33:33;15.30;99.90
921;DHT22;447;51.332;6.778;2022-10-16T05:36:07;15.30;99.90
921;DHT22;447;51.332;6.778;2022-10-16T05:38:37;15.30;99.90
921;DHT22;447;51.332;6.778;2022-10-16T05:41:08;15.30;99.90
921;DHT22;447;51.332;6.778;2022-10-16T05:43:35;15.20;99.90
921;DHT22;447;51.332;6.778;2022-10-16T05:46:05;15.30;99.90
921;DHT22;447;51.332;6.778;2022-10-16T05:48:34;15.20;99.90
921;DHT22;447;51.332;6.778;2022-10-16T05:51:05;15.20;99.90
921;DHT22;447;51.332;6.778;2022-10-16T05:53:34;15.20;99.90
921;DHT22;447;51.332;6.778;2022-10-16T05:56:26;15.20;99.90
921;DHT22;447;51.332;6.778;2022-10-16T05:58:52;15.20;99.90
921;DHT22;447;51.332;6.778;2022-10-16T06:01:19;15.20;99.90
921;DHT22;447;51.332;6.778;2022-10-16T06:03:46;15.20;99.90
921;DHT22;447;51.332;6.778;2022-10-16T06:06:17;15.20;99.90
921;DHT22;447;51.332;6.778;2022-10-16T06:08:45;15.20;99.90
921;DHT22;447;51.332;6.778;2022-10-16T06:11:20;15.20;99.90
921;DHT22;447;51.332;6.778;2022-10-16T06:13:56;15.20;99.90
921;DHT22;447;51.332;6.778;2022-10-16T06:16:24;15.20;99.90
921;DHT22;447;51.332;6.778;2022-10-16T06:18:54;15.20;99.90
921;DHT22;447;51.332;6.778;2022-10-16T06:21:24;15.20;99.90
921;DHT22;447;51.332;6.778;2022-10-16T06:23:54;15.20;99.90
921;DHT22;447;51.332;6.778;2022-10-16T06:26:23;15.20;99.90
921;DHT22;447;51.332;6.778;2022-10-16T06:28:58;15.20;99.90
921;DHT22;447;51.332;6.778;2022-10-16T06:31:27;15.20;99.90
921;DHT22;447;51.332;6.778;2022-10-16T06:33:56;15.10;99.90
921;DHT22;447;51.332;6.778;2022-10-16T06:36:23;15.10;99.90
921;DHT22;447;51.332;6.778;2022-10-16T06:38:49;15.10;99.90
921;DHT22;447;51.332;6.778;2022-10-16T06:41:35;15.10;99.90
921;DHT22;447;51.332;6.778;2022-10-16T06:44:17;15.10;99.90
921;DHT22;447;51.332;6.778;2022-10-16T06:46:43;15.10;99.90
921;DHT22;447;51.332;6.778;2022-10-16T06:49:09;15.10;99.90
921;DHT22;447;51.332;6.778;2022-10-16T06:51:37;15.10;99.90
921;DHT22;447;51.332;6.778;2022-10-16T06:54:06;15.10;99.90
921;DHT22;447;51.332;6.778;2022-10-16T06:56:33;15.10;99.90
921;DHT22;447;51.332;6.778;2022-10-16T06:59:00;15.10;99.90
921;DHT22;447;51.332;6.778;2022-10-16T07:01:27;15.10;99.90
921;DHT22;447;51.332;6.778;2022-10-16T07:03:53;15.10;99.90
921;DHT22;447;51.332;6.778;2022-10-16T07:06:23;15.10;99.90
921;DHT22;447;51.332;6.778;2022-10-16T07:08:52;15.10;99.90
921;DHT22;447;51.332;6.778;2022-10-16T07:11:21;15.10;99.90
921;DHT22;447;51.332;6.778;2022-10-16T07:13:48;15.10;99.90
921;DHT22;447;51.332;6.778;2022-10-16T07:16:19;15.10;99.90
921;DHT22;447;51.332;6.778;2022-10-16T07:18:50;15.10;99.90
921;DHT22;447;51.332;6.778;2022-10-16T07:21:23;15.10;99.90
921;DHT22;447;51.332;6.778;2022-10-16T07:23:58;15.00;99.90
921;DHT22;447;51.332;6.778;2022-10-16T07:26:28;15.00;99.90
921;DHT22;447;51.332;6.778;2022-10-16T07:28:56;15.00;99.90
921;DHT22;447;51.332;6.778;2022-10-16T07:31:23;15.00;99.90
921;DHT22;447;51.332;6.778;2022-10-16T07:33:51;15.10;99.90
921;DHT22;447;51.332;6.778;2022-10-16T07:36:20;15.10;99.90
921;DHT22;447;51.332;6.778;2022-10-16T07:38:47;15.00;99.90
921;DHT22;447;51.332;6.778;2022-10-16T07:41:16;15.00;99.90
921;DHT22;447;51.332;6.778;2022-10-16T07:43:46;15.10;99.90
921;DHT22;447;51.332;6.778;2022-10-16T07:46:15;15.10;99.90
921;DHT22;447;51.332;6.778;2022-10-16T07:48:42;15.10;99.90
921;DHT22;447;51.332;6.778;2022-10-16T07:51:16;15.10;99.90
921;DHT22;447;51.332;6.778;2022-10-16T07:53:42;15.10;99.90
921;DHT22;447;51.332;6.778;2022-10-16T07:56:08;15.00;99.90
921;DHT22;447;51.332;6.778;2022-10-16T07:58:35;15.10;99.90
921;DHT22;447;51.332;6.778;2022-10-16T08:01:10;15.10;99.90
921;DHT22;447;51.332;6.778;2022-10-16T08:03:37;15.10;99.90
921;DHT22;447;51.332;6.778;2022-10-16T08:06:03;15.10;99.90
921;DHT22;447;51.332;6.778;2022-10-16T08:08:30;15.10;99.90
921;DHT22;447;51.332;6.778;2022-10-16T08:10:56;15.10;99.90
921;DHT22;447;51.332;6.778;2022-10-16T08:13:22;15.10;99.90
921;DHT22;447;51.332;6.778;2022-10-16T08:15:48;15.10;99.90
921;DHT22;447;51.332;6.778;2022-10-16T08:18:52;15.10;99.90
921;DHT22;447;51.332;6.778;2022-10-16T08:21:22;15.10;99.90
921;DHT22;447;51.332;6.778;2022-10-16T08:23:54;15.10;99.90
921;DHT22;447;51.332;6.778;2022-10-16T08:26:23;15.10;99.90
921;DHT22;447;51.332;6.778;2022-10-16T08:28:52;15.10;99.90
921;DHT22;447;51.332;6.778;2022-10-16T08:31:21;15.10;99.90
921;DHT22;447;51.332;6.778;2022-10-16T08:33:47;15.10;99.90
921;DHT22;447;51.332;6.778;2022-10-16T08:36:15;15.20;99.90
921;DHT22;447;51.332;6.778;2022-10-16T08:38:41;15.20;99.90
921;DHT22;447;51.332;6.778;2022-10-16T08:41:56;15.20;99.90
921;DHT22;447;51.332;6.778;2022-10-16T08:49:56;15.20;99.90
921;DHT22;447;51.332;6.778;2022-10-16T08:52:28;15.30;99.90
921;DHT22;447;51.332;6.778;2022-10-16T08:54:55;15.30;99.90
921;DHT22;447;51.332;6.778;2022-10-16T08:57:24;15.30;99.90
921;DHT22;447;51.332;6.778;2022-10-16T08:59:52;15.30;99.90
921;DHT22;447;51.332;6.778;2022-10-16T09:10:42;15.40;99.90
921;DHT22;447;51.332;6.778;2022-10-16T09:13:36;15.40;99.90
921;DHT22;447;51.332;6.778;2022-10-16T09:21:49;15.50;99.90
921;DHT22;447;51.332;6.778;2022-10-16T09:24:21;15.50;99.90
921;DHT22;447;51.332;6.778;2022-10-16T09:26:47;15.50;99.90
921;DHT22;447;51.332;6.778;2022-10-16T09:29:50;15.50;99.90
921;DHT22;447;51.332;6.778;2022-10-16T09:32:19;15.60;99.90
921;DHT22;447;51.332;6.778;2022-10-16T09:34:55;15.60;99.90
921;DHT22;447;51.332;6.778;2022-10-16T09:37:24;15.60;99.90
921;DHT22;447;51.332;6.778;2022-10-16T09:39:53;15.60;99.90
921;DHT22;447;51.332;6.778;2022-10-16T09:42:31;15.60;99.90
921;DHT22;447;51.332;6.778;2022-10-16T09:44:57;15.70;99.90
921;DHT22;447;51.332;6.778;2022-10-16T09:47:35;15.70;99.90
921;DHT22;447;51.332;6.778;2022-10-16T09:50:20;15.70;99.90
921;DHT22;447;51.332;6.778;2022-10-16T09:52:47;15.70;99.90
921;DHT22;447;51.332;6.778;2022-10-16T09:55:18;15.70;99.90
921;DHT22;447;51.332;6.778;2022-10-16T09:57:51;15.80;99.90
921;DHT22;447;51.332;6.778;2022-10-16T10:00:21;15.80;99.90
921;DHT22;447;51.332;6.778;2022-10-16T10:02:51;15.80;99.90
921;DHT22;447;51.332;6.778;2022-10-16T10:05:24;15.80;99.90
921;DHT22;447;51.332;6.778;2022-10-16T10:07:59;15.90;99.90
921;DHT22;447;51.332;6.778;2022-10-16T10:10:31;15.90;99.90
921;DHT22;447;51.332;6.778;2022-10-16T10:13:02;15.90;99.90
921;DHT22;447;51.332;6.778;2022-10-16T10:15:33;15.90;99.90
921;DHT22;447;51.332;6.778;2022-10-16T10:18:00;15.90;99.90
921;DHT22;447;51.332;6.778;2022-10-16T10:20:35;15.90;99.90
921;DHT22;447;51.332;6.778;2022-10-16T10:23:21;15.90;99.90
921;DHT22;447;51.332;6.778;2022-10-16T10:26:10;16.00;99.90
921;DHT22;447;51.332;6.778;2022-10-16T10:37:42;16.00;99.90
921;DHT22;447;51.332;6.778;2022-10-16T10:40:40;16.00;99.90
921;DHT22;447;51.332;6.778;2022-10-16T10:46:39;16.10;99.90
921;DHT22;447;51.332;6.778;2022-10-16T11:06:47;16.20;99.90
921;DHT22;447;51.332;6.778;2022-10-16T11:09:34;16.20;99.90
921;DHT22;447;51.332;6.778;2022-10-16T11:12:09;16.20;99.90
921;DHT22;447;51.332;6.778;2022-10-16T11:14:41;16.20;99.90
921;DHT22;447;51.332;6.778;2022-10-16T11:17:19;16.20;99.90
921;DHT22;447;51.332;6.778;2022-10-16T11:19:57;16.30;99.90
921;DHT22;447;51.332;6.778;2022-10-16T11:22:34;16.30;99.90
921;DHT22;447;51.332;6.778;2022-10-16T11:25:16;16.30;99.90
921;DHT22;447;51.332;6.778;2022-10-16T11:27:50;16.30;99.90
921;DHT22;447;51.332;6.778;2022-10-16T11:30:28;16.40;99.90
921;DHT22;447;51.332;6.778;2022-10-16T11:35:46;16.40;99.90
921;DHT22;447;51.332;6.778;2022-10-16T11:41:29;16.40;99.90
921;DHT22;447;51.332;6.778;2022-10-16T11:47:27;16.40;99.90
921;DHT22;447;51.332;6.778;2022-10-16T11:55:48;16.50;99.90
921;DHT22;447;51.332;6.778;2022-10-16T12:06:31;16.50;99.90
921;DHT22;447;51.332;6.778;2022-10-16T12:09:00;16.60;99.90
921;DHT22;447;51.332;6.778;2022-10-16T12:16:59;16.60;99.90
921;DHT22;447;51.332;6.778;2022-10-16T12:19:31;16.60;99.90
921;DHT22;447;51.332;6.778;2022-10-16T12:22:00;16.60;99.90
921;DHT22;447;51.332;6.778;2022-10-16T12:24:34;16.60;99.90
921;DHT22;447;51.332;6.778;2022-10-16T12:27:17;16.60;99.90
921;DHT22;447;51.332;6.778;2022-10-16T12:29:48;16.70;99.90
921;DHT22;447;51.332;6.778;2022-10-16T12:32:31;16.70;99.90
921;DHT22;447;51.332;6.778;2022-10-16T12:35:01;16.70;99.90
921;DHT22;447;51.332;6.778;2022-10-16T12:37:38;16.70;99.90
921;DHT22;447;51.332;6.778;2022-10-16T12:40:13;16.70;99.90
921;DHT22;447;51.332;6.778;2022-10-16T12:42:43;16.70;99.90
921;DHT22;447;51.332;6.778;2022-10-16T12:45:31;16.80;99.90
921;DHT22;447;51.332;6.778;2022-10-16T12:48:04;16.80;99.90
921;DHT22;447;51.332;6.778;2022-10-16T12:50:46;16.80;99.90
921;DHT22;447;51.332;6.778;2022-10-16T12:53:26;16.80;99.90
921;DHT22;447;51.332;6.778;2022-10-16T13:01:12;16.80;99.90
921;DHT22;447;51.332;6.778;2022-10-16T13:04:12;16.90;99.90
921;DHT22;447;51.332;6.778;2022-10-16T13:12:44;16.90;99.90
921;DHT22;447;51.332;6.778;2022-10-16T13:23:36;16.90;99.90
921;DHT22;447;51.332;6.778;2022-10-16T13:29:06;16.90;99.90
921;DHT22;447;51.332;6.778;2022-10-16T13:31:40;17.00;99.90
921;DHT22;447;51.332;6.778;2022-10-16T13:34:15;17.00;99.90
921;DHT22;447;51.332;6.778;2022-10-16T13:36:46;17.00;99.90
921;DHT22;447;51.332;6.778;2022-10-16T13:39:29;17.00;99.90
921;DHT22;447;51.332;6.778;2022-10-16T13:42:05;17.00;99.90
921;DHT22;447;51.332;6.778;2022-10-16T13:47:24;17.00;99.90
921;DHT22;447;51.332;6.778;2022-10-16T13:50:04;17.00;99.90
921;DHT22;447;51.332;6.778;2022-10-16T13:52:31;17.00;99.90
921;DHT22;447;51.332;6.778;2022-10-16T13:55:22;17.00;99.90
921;DHT22;447;51.332;6.778;2022-10-16T13:57:49;17.00;99.90
921;DHT22;447;51.332;6.778;2022-10-16T14:03:00;17.10;99.90
921;DHT22;447;51.332;6.778;2022-10-16T14:05:29;17.10;99.90
921;DHT22;447;51.332;6.778;2022-10-16T14:07:58;17.10;99.90
921;DHT22;447;51.332;6.778;2022-10-16T14:10:32;17.10;99.90
921;DHT22;447;51.332;6.778;2022-10-16T14:13:02;17.10;99.90
921;DHT22;447;51.332;6.778;2022-10-16T14:15:30;17.10;99.90
921;DHT22;447;51.332;6.778;2022-10-16T14:17:57;17.10;99.90
921;DHT22;447;51.332;6.778;2022-10-16T14:20:34;17.10;99.90
921;DHT22;447;51.332;6.778;2022-10-16T14:23:23;17.10;99.90
921;DHT22;447;51.332;6.778;2022-10-16T14:25:54;17.20;99.90
921;DHT22;447;51.332;6.778;2022-10-16T14:28:32;17.20;99.90
921;DHT22;447;51.332;6.778;2022-10-16T14:31:02;17.20;99.90
921;DHT22;447;51.332;6.778;2022-10-16T14:33:45;17.20;99.90
921;DHT22;447;51.332;6.778;2022-10-16T14:36:15;17.20;99.90
921;DHT22;447;51.332;6.778;2022-10-16T14:38:56;17.20;99.90
921;DHT22;447;51.332;6.778;2022-10-16T14:41:26;17.20;99.90
921;DHT22;447;51.332;6.778;2022-10-16T14:44:02;17.20;99.90
921;DHT22;447;51.332;6.778;2022-10-16T14:46:40;17.20;99.90
921;DHT22;447;51.332;6.778;2022-10-16T14:49:20;17.20;99.90
921;DHT22;447;51.332;6.778;2022-10-16T14:51:46;17.20;99.90
921;DHT22;447;51.332;6.778;2022-10-16T14:54:16;17.20;99.90
921;DHT22;447;51.332;6.778;2022-10-16T14:59:27;17.20;99.90
921;DHT22;447;51.332;6.778;2022-10-16T15:01:54;17.20;99.90
921;DHT22;447;51.332;6.778;2022-10-16T15:04:25;17.20;99.90
921;DHT22;447;51.332;6.778;2022-10-16T15:06:52;17.20;99.90
921;DHT22;447;51.332;6.778;2022-10-16T15:09:18;17.20;99.90
921;DHT22;447;51.332;6.778;2022-10-16T15:11:50;17.20;99.90
921;DHT22;447;51.332;6.778;2022-10-16T15:14:20;17.20;99.90
921;DHT22;447;51.332;6.778;2022-10-16T15:16:49;17.20;99.90
921;DHT22;447;51.332;6.778;2022-10-16T15:19:17;17.30;99.90
921;DHT22;447;51.332;6.778;2022-10-16T15:21:47;17.30;99.90
921;DHT22;447;51.332;6.778;2022-10-16T15:24:35;17.30;99.90
921;DHT22;447;51.332;6.778;2022-10-16T15:27:03;17.30;99.90
921;DHT22;447;51.332;6.778;2022-10-16T15:29:29;17.30;99.90
921;DHT22;447;51.332;6.778;2022-10-16T15:31:59;17.30;99.90
921;DHT22;447;51.332;6.778;2022-10-16T15:34:27;17.30;99.90
921;DHT22;447;51.332;6.778;2022-10-16T15:36:53;17.30;99.90
921;DHT22;447;51.332;6.778;2022-10-16T15:39:26;17.30;99.90
921;DHT22;447;51.332;6.778;2022-10-16T15:41:54;17.30;99.90
921;DHT22;447;51.332;6.778;2022-10-16T15:44:23;17.30;99.90
921;DHT22;447;51.332;6.778;2022-10-16T15:46:57;17.30;99.90
921;DHT22;447;51.332;6.778;2022-10-16T15:49:23;17.30;99.90
921;DHT22;447;51.332;6.778;2022-10-16T15:51:55;17.30;99.90
921;DHT22;447;51.332;6.778;2022-10-16T15:54:21;17.20;99.90
921;DHT22;447;51.332;6.778;2022-10-16T15:56:50;17.30;99.90
921;DHT22;447;51.332;6.778;2022-10-16T15:59:20;17.20;99.90
921;DHT22;447;51.332;6.778;2022-10-16T16:01:46;17.30;99.90
921;DHT22;447;51.332;6.778;2022-10-16T16:04:14;17.20;99.90
921;DHT22;447;51.332;6.778;2022-10-16T16:06:40;17.20;99.90
921;DHT22;447;51.332;6.778;2022-10-16T16:09:13;17.20;99.90
921;DHT22;447;51.332;6.778;2022-10-16T16:11:42;17.20;99.90
921;DHT22;447;51.332;6.778;2022-10-16T16:14:17;17.20;99.90
921;DHT22;447;51.332;6.778;2022-10-16T16:16:43;17.20;99.90
921;DHT22;447;51.332;6.778;2022-10-16T16:19:09;17.20;99.90
921;DHT22;447;51.332;6.778;2022-10-16T16:21:35;17.20;99.90
921;DHT22;447;51.332;6.778;2022-10-16T16:24:03;17.20;99.90
921;DHT22;447;51.332;6.778;2022-10-16T16:26:36;17.20;99.90
921;DHT22;447;51.332;6.778;2022-10-16T16:29:11;17.20;99.90
921;DHT22;447;51.332;6.778;2022-10-16T16:31:40;17.20;99.90
921;DHT22;447;51.332;6.778;2022-10-16T16:34:08;17.20;99.90
921;DHT22;447;51.332;6.778;2022-10-16T16:36:35;17.20;99.90
921;DHT22;447;51.332;6.778;2022-10-16T16:39:01;17.20;99.90
921;DHT22;447;51.332;6.778;2022-10-16T16:41:28;17.20;99.90
921;DHT22;447;51.332;6.778;2022-10-16T16:44:08;17.20;99.90
921;DHT22;447;51.332;6.778;2022-10-16T16:46:39;17.20;99.90
921;DHT22;447;51.332;6.778;2022-10-16T16:49:12;17.20;99.90
921;DHT22;447;51.332;6.778;2022-10-16T16:51:38;17.30;99.90
921;DHT22;447;51.332;6.778;2022-10-16T16:54:05;17.30;99.90
921;DHT22;447;51.332;6.778;2022-10-16T16:56:35;17.30;99.90
921;DHT22;447;51.332;6.778;2022-10-16T16:59:10;17.30;99.90
921;DHT22;447;51.332;6.778;2022-10-16T17:01:36;17.30;99.90
921;DHT22;447;51.332;6.778;2022-10-16T17:04:21;17.30;99.90
921;DHT22;447;51.332;6.778;2022-10-16T17:06:47;17.20;99.90
921;DHT22;447;51.332;6.778;2022-10-16T17:09:18;17.20;99.90
921;DHT22;447;51.332;6.778;2022-10-16T17:11:47;17.20;99.90
921;DHT22;447;51.332;6.778;2022-10-16T17:14:15;17.20;99.90
921;DHT22;447;51.332;6.778;2022-10-16T17:16:41;17.20;99.90
921;DHT22;447;51.332;6.778;2022-10-16T17:19:15;17.20;99.90
921;DHT22;447;51.332;6.778;2022-10-16T17:21:42;17.20;99.90
921;DHT22;447;51.332;6.778;2022-10-16T17:24:12;17.20;99.90
921;DHT22;447;51.332;6.778;2022-10-16T17:26:38;17.20;99.90
921;DHT22;447;51.332;6.778;2022-10-16T17:29:11;17.20;99.90
921;DHT22;447;51.332;6.778;2022-10-16T17:31:40;17.20;99.90
921;DHT22;447;51.332;6.778;2022-10-16T17:34:09;17.20;99.90
921;DHT22;447;51.332;6.778;2022-10-16T17:36:37;17.20;99.90
921;DHT22;447;51.332;6.778;2022-10-16T17:39:06;17.20;99.90
921;DHT22;447;51.332;6.778;2022-10-16T17:41:33;17.10;99.90
921;DHT22;447;51.332;6.778;2022-10-16T17:44:00;17.10;99.90
921;DHT22;447;51.332;6.778;2022-10-16T17:46:30;17.20;99.90
921;DHT22;447;51.332;6.778;2022-10-16T17:49:02;17.20;99.90
921;DHT22;447;51.332;6.778;2022-10-16T17:51:45;17.10;99.90
921;DHT22;447;51.332;6.778;2022-10-16T17:54:13;17.10;99.90
921;DHT22;447;51.332;6.778;2022-10-16T17:56:40;17.10;99.90
921;DHT22;447;51.332;6.778;2022-10-16T17:59:09;17.10;99.90
921;DHT22;447;51.332;6.778;2022-10-16T18:01:39;17.10;99.90
921;DHT22;447;51.332;6.778;2022-10-16T18:04:11;17.10;99.90
921;DHT22;447;51.332;6.778;2022-10-16T18:06:39;17.10;99.90
921;DHT22;447;51.332;6.778;2022-10-16T18:09:13;17.10;99.90
921;DHT22;447;51.332;6.778;2022-10-16T18:11:42;17.10;99.90
921;DHT22;447;51.332;6.778;2022-10-16T18:14:12;17.10;99.90
921;DHT22;447;51.332;6.778;2022-10-16T18:16:38;17.10;99.90
921;DHT22;447;51.332;6.778;2022-10-16T18:19:04;17.10;99.90
921;DHT22;447;51.332;6.778;2022-10-16T18:21:32;17.10;99.90
921;DHT22;447;51.332;6.778;2022-10-16T18:23:59;17.10;99.90
921;DHT22;447;51.332;6.778;2022-10-16T18:26:26;17.10;99.90
921;DHT22;447;51.332;6.778;2022-10-16T18:28:57;17.10;99.90
921;DHT22;447;51.332;6.778;2022-10-16T18:31:25;17.10;99.90
921;DHT22;447;51.332;6.778;2022-10-16T18:33:51;17.10;99.90
921;DHT22;447;51.332;6.778;2022-10-16T18:36:29;17.10;99.90
921;DHT22;447;51.332;6.778;2022-10-16T18:38:58;17.10;99.90
921;DHT22;447;51.332;6.778;2022-10-16T18:41:25;17.10;99.90
921;DHT22;447;51.332;6.778;2022-10-16T18:43:52;17.10;99.90
921;DHT22;447;51.332;6.778;2022-10-16T18:46:20;17.00;99.90
921;DHT22;447;51.332;6.778;2022-10-16T18:48:47;17.00;99.90
921;DHT22;447;51.332;6.778;2022-10-16T18:51:18;17.10;99.90
921;DHT22;447;51.332;6.778;2022-10-16T18:53:49;17.10;99.90
921;DHT22;447;51.332;6.778;2022-10-16T18:56:20;17.00;99.90
921;DHT22;447;51.332;6.778;2022-10-16T18:58:47;17.00;99.90
921;DHT22;447;51.332;6.778;2022-10-16T19:01:18;17.10;99.90
921;DHT22;447;51.332;6.778;2022-10-16T19:03:53;17.10;99.90
921;DHT22;447;51.332;6.778;2022-10-16T19:06:19;17.10;99.90